Time;durP1;ratioP1;P1;durP2;ratioP2;P2;SDS_P1;SDS_P2;PMS_P1;PMS_P2;Temp;Humidity;BMP_temperature;BMP_pressure;BME280_temperature;BME280_humidity;BME280_pressure;Samples;Min_cycle;Max_cycle;Signal;HPM_P1;HPM_P2
2021/09/24 00:06:25;;;;;;;3.63;0.80;;;15.20;99.90;;;;;;20495447;28;20430;-79
2021/09/24 00:16:26;;;;;;;1.27;0.30;;;15.20;99.90;;;;;;20486471;28;20058;-80
2021/09/24 00:26:28;;;;;;;0.98;0.32;;;15.30;99.90;;;;;;20478555;28;20054;-79
2021/09/24 00:36:29;;;;;;;1.15;0.43;;;15.40;99.90;;;;;;20526532;28;20057;-80
2021/09/24 00:46:30;;;;;;;3.95;0.77;;;15.40;99.90;;;;;;20490353;28;20062;-80
2021/09/24 00:56:31;;;;;;;2.05;0.70;;;15.40;99.90;;;;;;20475206;28;20069;-80
2021/09/24 01:06:34;;;;;;;1.20;0.47;;;15.40;99.90;;;;;;20519704;28;20062;-80
2021/09/24 01:16:35;;;;;;;2.50;0.90;;;15.40;99.90;;;;;;20509837;28;20046;-80
2021/09/24 01:26:48;;;;;;;1.90;0.70;;;15.50;99.90;;;;;;20493510;28;20063;-80
2021/09/24 01:36:50;;;;;;;6.45;0.90;;;15.50;99.90;;;;;;20534531;28;20506;-80
2021/09/24 01:46:51;;;;;;;11.13;1.55;;;15.50;99.90;;;;;;20535924;28;20043;-80
2021/09/24 01:56:52;;;;;;;1.88;0.70;;;15.50;99.90;;;;;;20559634;28;20054;-80
2021/09/24 02:06:54;;;;;;;1.60;0.63;;;15.50;99.90;;;;;;20552334;28;20055;-80
2021/09/24 02:16:55;;;;;;;1.83;0.50;;;15.50;99.90;;;;;;20546370;28;20030;-80
2021/09/24 02:26:56;;;;;;;2.30;0.70;;;15.50;99.90;;;;;;20565760;28;20058;-79
2021/09/24 02:36:57;;;;;;;12.27;2.40;;;15.50;99.90;;;;;;20580843;28;20130;-81
2021/09/24 02:46:59;;;;;;;3.17;0.73;;;15.50;99.90;;;;;;20520307;28;20966;-80
2021/09/24 02:57:00;;;;;;;1.42;0.50;;;15.60;99.90;;;;;;20528578;28;20039;-80
2021/09/24 03:07:01;;;;;;;3.30;1.08;;;15.60;99.90;;;;;;20551950;28;20035;-79
2021/09/24 03:17:02;;;;;;;3.72;1.50;;;15.50;99.90;;;;;;20525633;28;20065;-80
2021/09/24 03:27:03;;;;;;;5.07;1.88;;;15.40;99.90;;;;;;20554042;28;20055;-80
2021/09/24 03:37:05;;;;;;;6.55;2.78;;;15.40;99.90;;;;;;20529926;28;20067;-80
2021/09/24 03:47:06;;;;;;;7.82;3.25;;;15.40;99.90;;;;;;20495205;28;20515;-80
2021/09/24 03:57:08;;;;;;;9.50;4.03;;;15.30;99.90;;;;;;20463753;28;20047;-79
2021/09/24 04:07:10;;;;;;;9.32;4.53;;;15.30;99.90;;;;;;20455796;28;20061;-79
2021/09/24 04:17:11;;;;;;;15.10;5.68;;;15.30;99.90;;;;;;20447620;28;20065;-81
2021/09/24 04:27:12;;;;;;;13.85;5.30;;;15.10;99.90;;;;;;20459283;28;20058;-82
2021/09/24 04:37:14;;;;;;;16.80;5.68;;;15.10;99.90;;;;;;20486184;28;20061;-80
2021/09/24 04:47:15;;;;;;;15.50;6.90;;;15.00;99.90;;;;;;20391933;28;20055;-79
2021/09/24 04:57:16;;;;;;;16.67;6.75;;;15.10;99.90;;;;;;20411928;28;21269;-80
2021/09/24 05:07:17;;;;;;;19.25;7.57;;;15.20;99.90;;;;;;20429632;28;20060;-79
2021/09/24 05:17:18;;;;;;;20.17;6.90;;;15.30;99.90;;;;;;20412793;28;20053;-79
2021/09/24 05:27:19;;;;;;;20.63;7.70;;;15.40;99.90;;;;;;20465765;28;20060;-80
2021/09/24 05:37:21;;;;;;;26.08;8.27;;;15.50;99.90;;;;;;20442461;28;20075;-79
2021/09/24 05:47:22;;;;;;;16.45;6.88;;;15.60;99.90;;;;;;20477544;28;20421;-79
2021/09/24 05:57:25;;;;;;;27.38;8.18;;;15.70;99.90;;;;;;20473724;28;20126;-80
2021/09/24 06:07:26;;;;;;;19.17;7.38;;;15.90;99.90;;;;;;20471684;28;20059;-79
2021/09/24 06:17:31;;;;;;;24.02;7.97;;;16.10;99.90;;;;;;20497827;28;20053;-79
2021/09/24 06:27:33;;;;;;;23.85;8.88;;;16.20;99.90;;;;;;20489354;28;20051;-79
2021/09/24 06:37:34;;;;;;;23.90;8.65;;;16.40;99.90;;;;;;20490885;28;20059;-80
2021/09/24 06:47:35;;;;;;;18.38;7.47;;;16.50;99.90;;;;;;20511252;28;20060;-80
2021/09/24 06:57:37;;;;;;;22.73;8.38;;;16.60;99.90;;;;;;20474618;28;20128;-81
2021/09/24 07:07:38;;;;;;;22.88;8.68;;;16.70;99.90;;;;;;20595074;28;20066;-79
2021/09/24 07:17:39;;;;;;;25.20;8.10;;;16.80;99.90;;;;;;20540151;28;22062;-79
2021/09/24 07:27:42;;;;;;;19.63;6.63;;;16.90;99.90;;;;;;20510695;28;20377;-79
2021/09/24 07:37:44;;;;;;;17.15;6.60;;;17.00;99.90;;;;;;20499627;28;20048;-80
2021/09/24 07:47:45;;;;;;;14.38;6.93;;;17.10;99.90;;;;;;20443695;28;20051;-81
2021/09/24 07:57:51;;;;;;;21.13;7.07;;;17.20;99.90;;;;;;20445877;28;20130;-80
2021/09/24 08:07:53;;;;;;;11.82;5.78;;;17.30;99.90;;;;;;20420318;28;20452;-80
2021/09/24 08:17:54;;;;;;;16.83;7.65;;;17.40;99.90;;;;;;20455570;28;20192;-80
2021/09/24 08:27:55;;;;;;;19.85;6.43;;;17.50;99.90;;;;;;20483980;28;20474;-80
2021/09/24 08:37:57;;;;;;;13.80;5.63;;;17.70;99.90;;;;;;20485165;28;20554;-80
2021/09/24 08:48:06;;;;;;;14.05;5.90;;;17.80;99.90;;;;;;20500728;28;20062;-81
2021/09/24 08:58:07;;;;;;;15.45;6.35;;;17.90;99.90;;;;;;20489399;28;20054;-81
2021/09/24 09:08:17;;;;;;;25.85;9.77;;;18.20;99.90;;;;;;20460613;28;20060;-80
2021/09/24 09:18:19;;;;;;;13.18;5.60;;;18.30;99.90;;;;;;20522715;28;20221;-80
2021/09/24 09:28:53;;;;;;;8.45;4.00;;;18.40;99.90;;;;;;20479159;28;20083;-79
2021/09/24 09:38:56;;;;;;;11.10;5.20;;;18.50;99.90;;;;;;20434594;28;20114;-79
2021/09/24 09:49:07;;;;;;;9.35;4.53;;;18.70;99.90;;;;;;20500231;28;20050;-79
2021/09/24 09:59:27;;;;;;;7.55;3.25;;;18.90;99.90;;;;;;20480591;28;20094;-80
2021/09/24 10:09:31;;;;;;;8.50;3.63;;;19.30;99.90;;;;;;20514949;28;20053;-79
2021/09/24 10:19:33;;;;;;;12.77;4.95;;;19.60;99.90;;;;;;20488190;28;20056;-80
2021/09/24 10:29:40;;;;;;;6.70;3.88;;;20.00;99.90;;;;;;20472433;28;20065;-80
2021/09/24 10:39:42;;;;;;;6.95;2.92;;;20.00;99.90;;;;;;20511759;28;20043;-80
2021/09/24 10:49:43;;;;;;;7.43;3.03;;;20.10;99.90;;;;;;20529672;28;20549;-80
2021/09/24 10:59:44;;;;;;;5.80;2.83;;;20.10;99.90;;;;;;20562315;28;20066;-79
2021/09/24 11:09:52;;;;;;;7.90;3.13;;;20.00;99.90;;;;;;20513268;28;20044;-81
2021/09/24 11:19:53;;;;;;;5.00;2.63;;;20.30;99.90;;;;;;20485042;28;20050;-81
2021/09/24 11:30:01;;;;;;;4.68;2.60;;;20.80;99.90;;;;;;20519487;28;20143;-79
2021/09/24 11:40:13;;;;;;;4.82;2.13;;;20.50;99.90;;;;;;20480697;28;20051;-80
2021/09/24 11:50:19;;;;;;;2.97;1.90;;;20.60;99.90;;;;;;20516231;28;20514;-79
2021/09/24 12:00:20;;;;;;;4.50;1.30;;;20.80;99.90;;;;;;20485652;28;20060;-79
2021/09/24 12:10:30;;;;;;;2.15;0.85;;;20.60;99.90;;;;;;20452666;28;20063;-79
2021/09/24 12:20:31;;;;;;;64.00;28.40;;;20.40;99.90;;;;;;20489935;28;20053;-79
2021/09/24 12:30:38;;;;;;;2.92;1.55;;;20.50;99.90;;;;;;20480551;28;20060;-79
2021/09/24 12:40:39;;;;;;;1.25;0.60;;;20.40;99.90;;;;;;20430534;28;20044;-80
2021/09/24 12:50:42;;;;;;;0.80;0.30;;;20.60;99.90;;;;;;20404640;28;20082;-79
2021/09/24 13:00:45;;;;;;;1.58;0.60;;;20.50;99.90;;;;;;20412343;28;20023;-79
2021/09/24 13:10:46;;;;;;;1.38;0.77;;;20.50;99.90;;;;;;20402534;28;20134;-79
2021/09/24 13:20:49;;;;;;;1.85;0.55;;;21.40;99.90;;;;;;20438633;28;20058;-79
2021/09/24 13:30:50;;;;;;;1.92;0.43;;;21.20;99.90;;;;;;20429279;28;20127;-79
2021/09/24 13:40:54;;;;;;;1.00;0.50;;;21.80;99.90;;;;;;20417640;28;20076;-78
2021/09/24 13:50:55;;;;;;;2.65;0.70;;;22.90;99.90;;;;;;20478322;28;20056;-78
2021/09/24 14:00:57;;;;;;;1.92;0.73;;;22.50;99.90;;;;;;20481729;28;20039;-78
2021/09/24 14:10:58;;;;;;;3.25;1.42;;;22.30;99.90;;;;;;20513832;28;20051;-81
2021/09/24 14:21:00;;;;;;;4.32;1.92;;;22.00;99.90;;;;;;20522088;28;20042;-78
2021/09/24 14:31:01;;;;;;;3.15;1.30;;;22.00;99.90;;;;;;20515188;28;20054;-79
2021/09/24 14:41:02;;;;;;;3.90;0.95;;;21.50;99.90;;;;;;20501163;28;20125;-78
2021/09/24 14:51:04;;;;;;;2.33;1.00;;;21.70;99.90;;;;;;20539711;28;20056;-79
2021/09/24 15:01:05;;;;;;;3.38;1.02;;;21.50;99.90;;;;;;20523700;28;20056;-79
2021/09/24 15:11:06;;;;;;;2.38;1.05;;;21.20;99.90;;;;;;20530005;28;20062;-79
2021/09/24 15:21:07;;;;;;;2.72;0.75;;;20.80;99.90;;;;;;20528159;28;20089;-79
2021/09/24 15:31:08;;;;;;;4.38;1.23;;;20.50;99.90;;;;;;20512017;28;20054;-79
2021/09/24 15:41:09;;;;;;;1.65;0.60;;;20.70;99.90;;;;;;20491105;28;20070;-79
2021/09/24 15:51:12;;;;;;;7.00;1.52;;;20.60;99.90;;;;;;20508209;28;20122;-79
2021/09/24 16:01:13;;;;;;;0.85;0.40;;;20.50;99.90;;;;;;20505586;28;20424;-79
2021/09/24 16:11:14;;;;;;;2.88;0.60;;;20.40;99.90;;;;;;20435198;28;20050;-79
2021/09/24 16:21:15;;;;;;;4.50;0.85;;;20.00;99.90;;;;;;20472683;28;20043;-79
2021/09/24 16:31:16;;;;;;;2.85;0.70;;;19.80;99.90;;;;;;20558051;28;20063;-79
2021/09/24 16:41:18;;;;;;;0.82;0.40;;;19.60;99.90;;;;;;20514016;28;20054;-79
2021/09/24 16:51:19;;;;;;;0.77;0.38;;;19.50;99.90;;;;;;20488416;28;20058;-80
2021/09/24 17:01:20;;;;;;;4.75;0.77;;;19.20;99.90;;;;;;20501888;28;20134;-79
2021/09/24 17:11:22;;;;;;;1.73;0.60;;;19.10;99.90;;;;;;20508280;28;20059;-80
2021/09/24 17:21:24;;;;;;;0.73;0.20;;;18.90;99.90;;;;;;20509518;28;20079;-80
2021/09/24 17:31:25;;;;;;;2.42;0.40;;;19.10;99.90;;;;;;20482836;28;20061;-80
2021/09/24 17:41:26;;;;;;;2.55;0.77;;;19.00;99.90;;;;;;20447188;28;20058;-79
2021/09/24 17:51:27;;;;;;;0.88;0.30;;;19.00;99.90;;;;;;20376598;28;20042;-80
2021/09/24 18:01:29;;;;;;;1.60;0.60;;;19.00;99.90;;;;;;20417731;28;20065;-80
2021/09/24 18:11:30;;;;;;;3.72;0.50;;;18.90;99.90;;;;;;20406296;28;20238;-79
2021/09/24 18:21:35;;;;;;;1.55;0.30;;;18.80;99.90;;;;;;20404997;28;20519;-80
2021/09/24 18:31:37;;;;;;;1.27;0.40;;;18.70;99.90;;;;;;20383614;28;20073;-80
2021/09/24 18:41:38;;;;;;;1.35;0.40;;;18.50;99.90;;;;;;20461037;28;20039;-79
2021/09/24 18:51:39;;;;;;;1.70;0.57;;;18.40;99.90;;;;;;20454669;28;20063;-79
2021/09/24 19:01:40;;;;;;;1.48;0.63;;;18.40;99.90;;;;;;20577531;28;20090;-81
2021/09/24 19:11:43;;;;;;;3.08;1.10;;;18.50;99.90;;;;;;20436204;28;20055;-81
2021/09/24 19:21:44;;;;;;;3.00;0.50;;;18.50;99.90;;;;;;20487140;28;20045;-81
2021/09/24 19:31:46;;;;;;;0.52;0.35;;;18.40;99.90;;;;;;20532534;28;20071;-81
2021/09/24 19:41:48;;;;;;;1.50;0.45;;;18.40;99.90;;;;;;20472698;28;20052;-79
2021/09/24 19:51:49;;;;;;;1.13;0.38;;;18.30;99.90;;;;;;20427146;28;20079;-79
2021/09/24 20:01:50;;;;;;;3.85;0.50;;;18.30;99.90;;;;;;20392239;28;20062;-79
2021/09/24 20:11:52;;;;;;;2.50;1.05;;;18.30;99.90;;;;;;20428681;28;20073;-79
2021/09/24 20:21:53;;;;;;;1.95;0.40;;;18.40;99.90;;;;;;20413494;28;20040;-79
2021/09/24 20:31:54;;;;;;;2.83;0.50;;;18.20;99.90;;;;;;20411047;28;20062;-80
2021/09/24 20:41:57;;;;;;;1.40;0.75;;;18.20;99.90;;;;;;20478925;28;20534;-80
2021/09/24 20:51:58;;;;;;;5.88;0.70;;;18.10;99.90;;;;;;20503329;28;20519;-79
2021/09/24 21:01:59;;;;;;;2.92;1.25;;;18.00;99.90;;;;;;20508181;28;20054;-80
2021/09/24 21:12:00;;;;;;;4.32;0.50;;;18.10;99.90;;;;;;20467625;28;20574;-79
2021/09/24 21:22:01;;;;;;;4.00;0.63;;;18.10;99.90;;;;;;20526694;28;20491;-79
2021/09/24 21:32:03;;;;;;;2.03;0.60;;;18.10;99.90;;;;;;20516239;28;20047;-80
2021/09/24 21:42:05;;;;;;;2.72;0.60;;;18.10;99.90;;;;;;20520654;28;20058;-79
2021/09/24 21:52:06;;;;;;;2.33;0.68;;;18.10;99.90;;;;;;20526023;28;20068;-80
2021/09/24 22:02:07;;;;;;;1.00;0.43;;;18.10;99.90;;;;;;20551644;28;20058;-79
2021/09/24 22:12:12;;;;;;;3.70;0.82;;;18.00;99.90;;;;;;20588396;28;20061;-80
2021/09/24 22:22:13;;;;;;;1.73;0.47;;;18.00;99.90;;;;;;20588535;28;20722;-80
2021/09/24 22:32:15;;;;;;;3.08;0.70;;;18.00;99.90;;;;;;20592996;28;20066;-79
2021/09/24 22:42:16;;;;;;;3.35;0.95;;;18.00;99.90;;;;;;20541082;28;20058;-79
2021/09/24 22:52:17;;;;;;;3.58;0.60;;;18.00;99.90;;;;;;20567897;28;20065;-79
2021/09/24 23:02:19;;;;;;;2.60;0.90;;;18.00;99.90;;;;;;20574173;28;20066;-80
2021/09/24 23:12:20;;;;;;;6.43;0.90;;;17.90;99.90;;;;;;20547847;28;20503;-80
2021/09/24 23:22:22;;;;;;;1.73;0.82;;;17.80;99.90;;;;;;20532379;28;20051;-80
2021/09/24 23:32:23;;;;;;;3.80;1.00;;;17.70;99.90;;;;;;20527911;28;20609;-80
2021/09/24 23:42:24;;;;;;;4.82;1.02;;;17.70;99.90;;;;;;20559504;28;20063;-80
2021/09/24 23:52:25;;;;;;;2.97;0.90;;;17.60;99.90;;;;;;20579174;28;22326;-81
